Terminal Aerodrome Forecast
Issued by NWS Jackson, MS

Home | Current Version | Previous Version | Text Only | Print | Product List | Glossary On
Versions: 1 2 3 4 5 6 7 8 9 10 11 12 13 14 15 16
564
FTUS44 KMEG 051729
TAFTUP
TAF
KTUP 051729Z 0518/0618 VRB06KT 6SM -SHRA BR OVC008
      TEMPO 0518/0520 5SM -RA OVC006
     FM060100 13007KT 2SM -RA BR OVC005
     FM061500 30009KT 4SM -SHRA OVC007=

USA.gov is the U.S. government's official web portal to all federal, state and local government web resources and services.